Time;durP1;ratioP1;P1;durP2;ratioP2;P2;SDS_P1;SDS_P2;PMS_P1;PMS_P2;Temp;Humidity;BMP_temperature;BMP_pressure;BME280_temperature;BME280_humidity;BME280_pressure;Samples;Min_cycle;Max_cycle;Signal;HPM_P1;HPM_P2
2022/08/20 00:00:45;;;;;;;9.48;6.30;;;;;;;20.92;78.49;98083.94;5020660;28;20040;-78
2022/08/20 00:03:15;;;;;;;;;;;;;;;20.91;78.10;98085.91;5018505;28;20030;-76
2022/08/20 00:05:44;;;;;;;8.63;6.05;;;;;;;20.89;78.41;98090.28;5020340;28;20999;-78
2022/08/20 00:08:10;;;;;;;10.02;6.18;;;;;;;20.87;78.25;98106.56;5022310;28;20234;-77
2022/08/20 00:10:40;;;;;;;12.32;6.10;;;;;;;20.84;78.22;98110.88;5022261;28;20040;-76
2022/08/20 00:13:08;;;;;;;11.82;6.35;;;;;;;20.84;78.60;98121.25;5020314;28;20025;-77
2022/08/20 00:15:35;;;;;;;10.43;6.20;;;;;;;20.83;78.56;98123.22;5020574;28;20064;-77
2022/08/20 00:18:02;;;;;;;12.82;6.40;;;;;;;20.86;78.61;98133.63;5021394;28;20021;-74
2022/08/20 00:20:32;;;;;;;14.30;6.38;;;;;;;20.86;78.52;98128.03;5022323;28;20026;-75
2022/08/20 00:22:57;;;;;;;8.88;5.93;;;;;;;20.90;78.72;98139.25;5017769;28;20828;-75
2022/08/20 00:25:27;;;;;;;8.80;6.32;;;;;;;20.93;78.60;98152.47;5022053;28;20022;-75
2022/08/20 00:27:52;;;;;;;15.77;6.72;;;;;;;20.94;78.70;98157.66;5020546;28;20025;-75
2022/08/20 00:30:18;;;;;;;11.13;6.82;;;;;;;20.96;78.61;98155.28;5021099;28;20090;-75
2022/08/20 00:32:52;;;;;;;9.25;6.22;;;;;;;20.95;78.46;98150.91;5021478;28;20035;-75
2022/08/20 00:35:20;;;;;;;11.75;6.57;;;;;;;20.96;78.61;98148.94;5021724;28;20040;-75
2022/08/20 00:37:46;;;;;;;9.73;6.20;;;;;;;20.96;78.67;98144.13;5022974;28;20037;-75
2022/08/20 00:40:15;;;;;;;10.10;6.57;;;;;;;20.96;78.64;98132.19;5021099;28;20033;-75
2022/08/20 00:42:42;;;;;;;;;;;;;;;20.99;78.54;98130.63;5021344;28;20661;-75
2022/08/20 00:45:09;;;;;;;16.65;7.32;;;;;;;20.98;78.66;98121.47;5021034;28;19924;-74
2022/08/20 00:47:36;;;;;;;12.65;6.97;;;;;;;20.99;78.44;98113.91;5021069;28;20037;-75
2022/08/20 00:50:01;;;;;;;11.23;6.60;;;;;;;20.99;78.55;98100.75;5022185;28;20022;-75
2022/08/20 00:52:26;;;;;;;14.73;7.40;;;;;;;21.00;78.71;98088.44;5020701;28;20913;-75
2022/08/20 00:54:56;;;;;;;11.02;6.82;;;;;;;20.99;78.72;98091.59;5020978;28;20045;-75
2022/08/20 00:57:31;;;;;;;14.85;7.50;;;;;;;21.00;78.49;98082.84;5022631;28;20026;-74
2022/08/20 00:59:58;;;;;;;13.65;7.32;;;;;;;20.99;78.82;98067.31;5021272;28;20113;-75
2022/08/20 01:02:27;;;;;;;13.93;7.47;;;;;;;21.00;78.71;98063.34;5020833;28;20855;-75
2022/08/20 01:04:53;;;;;;;10.57;7.30;;;;;;;21.01;78.77;98067.75;5021777;28;20057;-75
2022/08/20 01:07:25;;;;;;;13.13;7.43;;;;;;;21.01;78.70;98064.94;5020628;28;22018;-74
2022/08/20 01:09:51;;;;;;;12.57;7.10;;;;;;;21.01;78.60;98075.31;5020674;28;20033;-75
2022/08/20 01:12:17;;;;;;;11.95;7.28;;;;;;;21.01;78.67;98078.88;5020743;28;20029;-74
2022/08/20 01:14:45;;;;;;;15.10;7.10;;;;;;;21.00;78.64;98077.28;5020454;28;20824;-75
2022/08/20 01:17:16;;;;;;;14.18;7.57;;;;;;;21.02;78.42;98076.91;5021269;28;20108;-74
2022/08/20 01:20:02;;;;;;;14.73;7.40;;;;;;;21.02;78.58;98072.13;5020965;28;20056;-74
2022/08/20 01:25:49;;;;;;;11.70;7.40;;;;;;;21.00;78.69;98101.59;5021143;28;20064;-75
2022/08/20 01:28:19;;;;;;;12.82;7.70;;;;;;;20.97;78.48;98103.94;5021416;28;20083;-73
2022/08/20 01:30:45;;;;;;;12.75;8.02;;;;;;;20.97;78.74;98103.94;5020343;28;20042;-74
2022/08/20 01:33:12;;;;;;;13.23;7.88;;;;;;;20.96;78.55;98093.97;5020320;28;20526;-74
2022/08/20 01:35:40;;;;;;;13.75;8.48;;;;;;;20.97;78.59;98092.00;5019946;28;20045;-75
2022/08/20 01:38:06;;;;;;;16.63;9.55;;;;;;;20.98;78.77;98085.25;5019747;28;20502;-75
2022/08/20 01:40:54;;;;;;;16.58;9.32;;;;;;;20.95;78.50;98078.41;5018452;28;20021;-74
2022/08/20 01:43:20;;;;;;;15.82;9.80;;;;;;;20.96;78.61;98071.66;5019923;28;20071;-74
2022/08/20 01:45:45;;;;;;;12.98;10.05;;;;;;;20.94;78.88;98062.09;5020315;28;20487;-75
2022/08/20 01:48:13;;;;;;;18.45;10.35;;;;;;;20.97;78.74;98064.13;5019489;28;20029;-74
2022/08/20 01:50:43;;;;;;;14.93;10.00;;;;;;;20.97;78.86;98066.91;5019889;28;20052;-74
2022/08/20 01:53:29;;;;;;;15.07;10.27;;;;;;;20.99;78.85;98058.16;5017858;28;20775;-74
2022/08/20 01:55:54;;;;;;;15.98;9.70;;;;;;;21.02;78.77;98069.34;5019229;28;20037;-75
2022/08/20 01:58:20;;;;;;;14.20;9.98;;;;;;;21.00;78.69;98068.13;5020071;28;20037;-76
2022/08/20 02:00:45;;;;;;;17.60;10.13;;;;;;;21.01;78.90;98069.75;5020072;28;20036;-75
2022/08/20 02:03:11;;;;;;;15.18;9.52;;;;;;;21.01;78.85;98072.53;5020193;28;20034;-75
2022/08/20 02:05:36;;;;;;;15.30;9.93;;;;;;;21.01;78.89;98073.31;5020386;28;20034;-76
2022/08/20 02:08:04;;;;;;;16.73;9.77;;;;;;;21.02;79.03;98069.34;5020444;28;20112;-76
2022/08/20 02:10:32;;;;;;;13.90;9.20;;;;;;;21.03;78.65;98064.59;5020368;28;20037;-75
2022/08/20 02:13:00;;;;;;;16.50;8.90;;;;;;;21.03;78.86;98050.66;5020028;28;20033;-76
2022/08/20 02:15:25;;;;;;;15.48;9.23;;;;;;;21.05;78.78;98056.66;5019503;28;20046;-75
2022/08/20 02:17:51;;;;;;;15.70;9.60;;;;;;;21.05;78.79;98060.22;5019495;28;20541;-76
2022/08/20 02:20:20;;;;;;;16.33;9.82;;;;;;;21.07;79.02;98073.81;5021494;28;20055;-76
2022/08/20 02:22:55;;;;;;;16.27;9.82;;;;;;;21.07;78.88;98091.34;5020185;28;20038;-76
2022/08/20 02:25:23;;;;;;;14.52;10.13;;;;;;;21.08;78.90;98100.50;5020159;28;20025;-75
2022/08/20 02:27:51;;;;;;;14.60;9.73;;;;;;;21.09;78.92;98102.13;5018737;28;20037;-75
2022/08/20 02:30:21;;;;;;;16.45;11.48;;;;;;;21.10;78.94;98110.09;5019599;28;20496;-75
2022/08/20 02:32:47;;;;;;;15.40;10.32;;;;;;;21.10;79.03;98106.53;5020072;28;20116;-75
2022/08/20 02:35:13;;;;;;;16.45;9.73;;;;;;;21.10;78.76;98098.16;5018891;28;20032;-75
2022/08/20 02:37:42;;;;;;;16.27;10.13;;;;;;;21.08;78.63;98090.16;5019521;28;20116;-75
2022/08/20 02:40:13;;;;;;;14.27;9.82;;;;;;;21.07;79.18;98090.53;5020946;28;20460;-75
2022/08/20 02:42:40;;;;;;;13.95;9.45;;;;;;;21.08;79.10;98084.56;5019874;28;20088;-75
2022/08/20 02:45:09;;;;;;;14.98;8.93;;;;;;;21.07;78.79;98082.19;5019752;28;20065;-75
2022/08/20 02:47:35;;;;;;;15.50;9.52;;;;;;;21.08;78.89;98076.22;5018351;28;20517;-76
2022/08/20 02:50:02;;;;;;;12.23;8.70;;;;;;;21.08;79.05;98087.38;5020383;28;20499;-75
2022/08/20 02:52:28;;;;;;;14.50;9.80;;;;;;;21.09;78.95;98085.41;5024194;28;20025;-75
2022/08/20 02:54:53;;;;;;;17.70;9.40;;;;;;;21.10;78.83;98089.78;5024070;28;20041;-75
2022/08/20 02:57:19;;;;;;;17.55;9.50;;;;;;;21.11;79.07;98083.03;5022291;28;20034;-75
2022/08/20 02:59:46;;;;;;;14.32;9.52;;;;;;;21.11;78.87;98080.25;5024204;28;20066;-75
2022/08/20 03:02:12;;;;;;;15.13;10.30;;;;;;;21.11;78.96;98077.47;5024126;28;20025;-75
2022/08/20 03:04:38;;;;;;;15.45;9.93;;;;;;;21.11;78.91;98086.63;5021632;28;20072;-75
2022/08/20 03:07:04;;;;;;;16.17;10.43;;;;;;;21.13;78.82;98083.47;5023171;28;20114;-75
2022/08/20 03:09:30;;;;;;;13.73;9.40;;;;;;;21.14;79.17;98082.28;5022304;28;20613;-75
2022/08/20 03:11:56;;;;;;;13.82;10.27;;;;;;;21.15;79.16;98083.06;5023961;28;20108;-75
2022/08/20 03:14:22;;;;;;;15.52;10.50;;;;;;;21.17;79.14;98091.88;5022577;28;21337;-75
2022/08/20 03:16:47;;;;;;;14.88;10.05;;;;;;;21.17;79.08;98103.03;5022232;28;20069;-76
2022/08/20 03:19:13;;;;;;;15.40;9.60;;;;;;;21.17;78.99;98091.88;5024916;28;20061;-76
2022/08/20 03:21:39;;;;;;;14.82;10.13;;;;;;;21.17;79.05;98098.25;5024627;28;20510;-76
2022/08/20 03:24:04;;;;;;;13.95;10.30;;;;;;;21.16;79.21;98085.50;5022779;28;20108;-76
2022/08/20 03:26:30;;;;;;;16.65;10.63;;;;;;;21.16;79.08;98077.13;5024175;28;20061;-76
2022/08/20 03:28:55;;;;;;;13.70;9.77;;;;;;;21.15;78.83;98063.56;5022377;28;20037;-75
2022/08/20 03:31:21;;;;;;;18.33;9.63;;;;;;;21.17;78.99;98069.56;5023255;28;20069;-76
2022/08/20 03:33:46;;;;;;;18.05;10.43;;;;;;;21.15;79.16;98058.81;5022526;28;20368;-76
2022/08/20 03:36:12;;;;;;;14.77;9.98;;;;;;;21.16;78.99;98045.66;5023024;28;20044;-77
2022/08/20 03:38:37;;;;;;;16.13;9.65;;;;;;;21.17;78.92;98036.91;5021999;28;20474;-76
2022/08/20 03:41:02;;;;;;;17.00;10.43;;;;;;;21.17;79.08;98024.94;5023128;28;20675;-76
2022/08/20 03:43:28;;;;;;;14.93;9.85;;;;;;;21.18;79.01;98037.72;5023463;28;20041;-76
2022/08/20 03:45:54;;;;;;;17.73;10.50;;;;;;;21.14;79.07;98045.22;5024134;28;20065;-77
2022/08/20 03:48:20;;;;;;;13.57;9.65;;;;;;;21.14;79.14;98036.84;5025897;28;20060;-76
2022/08/20 03:50:49;;;;;;;13.25;10.15;;;;;;;21.14;79.04;98043.25;5025789;28;20037;-76
2022/08/20 03:53:15;;;;;;;16.50;10.63;;;;;;;21.16;78.99;98045.66;5023728;28;20047;-76
2022/08/20 03:55:44;;;;;;;15.95;9.75;;;;;;;21.13;78.86;98036.06;5023113;28;20029;-76
2022/08/20 03:58:10;;;;;;;12.25;9.75;;;;;;;21.14;79.41;98036.84;5024649;28;20112;-76
2022/08/20 04:00:48;;;;;;;16.52;10.95;;;;;;;21.16;79.22;98034.50;5025116;28;20063;-76
2022/08/20 04:03:15;;;;;;;14.80;10.60;;;;;;;21.15;79.27;98030.91;5021233;28;20140;-76
2022/08/20 04:05:41;;;;;;;18.65;11.30;;;;;;;21.16;79.00;98028.91;5023766;28;20524;-76
2022/08/20 04:08:28;;;;;;;15.88;11.23;;;;;;;21.16;79.35;98028.91;5025843;28;20033;-76
2022/08/20 04:10:56;;;;;;;15.18;10.57;;;;;;;21.15;79.15;98027.31;5024412;28;20037;-76
2022/08/20 04:13:23;;;;;;;16.83;10.10;;;;;;;21.11;79.15;98025.28;5023633;28;20556;-77
2022/08/20 04:15:49;;;;;;;16.52;9.80;;;;;;;21.10;79.16;98051.53;5023611;28;20033;-76
2022/08/20 04:18:19;;;;;;;16.17;10.52;;;;;;;21.09;79.04;98057.50;5022482;28;20552;-77
2022/08/20 04:20:46;;;;;;;12.88;9.93;;;;;;;21.08;79.21;98059.47;5025870;28;20079;-77
2022/08/20 04:23:13;;;;;;;14.35;9.98;;;;;;;21.08;79.23;98051.13;5020609;28;20017;-76
2022/08/20 04:25:40;;;;;;;16.90;10.48;;;;;;;21.10;79.38;98054.34;5023409;28;20025;-76
2022/08/20 04:28:13;;;;;;;16.45;11.13;;;;;;;21.11;79.26;98055.94;5024507;28;20039;-76
2022/08/20 04:30:39;;;;;;;17.00;11.07;;;;;;;21.11;79.09;98057.94;5023383;28;20079;-76
2022/08/20 04:33:04;;;;;;;17.15;10.85;;;;;;;21.12;79.24;98049.19;5025128;28;20037;-76
2022/08/20 04:35:30;;;;;;;19.08;10.95;;;;;;;21.13;79.35;98050.00;5024214;28;20032;-76
2022/08/20 04:38:05;;;;;;;17.50;10.65;;;;;;;21.11;79.55;98042.00;5021451;28;20069;-76
2022/08/20 04:43:16;;;;;;;15.55;9.82;;;;;;;21.13;79.14;98030.50;5024187;28;20040;-76
2022/08/20 04:45:42;;;;;;;13.88;10.15;;;;;;;21.15;79.20;98033.69;5023969;28;20120;-76
2022/08/20 04:48:08;;;;;;;12.35;9.35;;;;;;;21.19;79.35;98039.31;5025267;28;20026;-76
2022/08/20 04:50:37;;;;;;;11.18;9.57;;;;;;;21.22;79.42;98036.56;5022732;28;20033;-76
2022/08/20 04:53:06;;;;;;;15.25;10.32;;;;;;;21.23;79.53;98034.59;5019898;28;20029;-76
2022/08/20 04:55:32;;;;;;;17.02;10.55;;;;;;;21.24;79.64;98030.63;5024062;28;20025;-76
2022/08/20 04:58:05;;;;;;;16.13;10.35;;;;;;;21.29;79.65;98029.47;5025480;28;20034;-76
2022/08/20 05:00:31;;;;;;;13.45;9.80;;;;;;;21.30;79.72;98028.28;5022216;28;20036;-76
2022/08/20 05:02:57;;;;;;;13.90;9.50;;;;;;;21.29;79.45;98027.50;5024703;28;20045;-76
2022/08/20 05:05:23;;;;;;;11.85;9.20;;;;;;;21.31;79.51;98025.16;5023495;28;20037;-76
2022/08/20 05:07:48;;;;;;;10.40;8.93;;;;;;;21.35;79.71;98031.56;5024595;28;20055;-76
2022/08/20 05:10:17;;;;;;;12.15;9.07;;;;;;;21.37;79.59;98036.75;5024326;28;20112;-76
2022/08/20 05:12:43;;;;;;;11.25;8.57;;;;;;;21.39;79.53;98032.44;5054556;28;20127;-76
2022/08/20 05:15:10;;;;;;;12.57;8.68;;;;;;;21.42;79.66;98039.22;5021775;28;20038;-76
2022/08/20 05:17:40;;;;;;;10.93;8.55;;;;;;;21.47;79.65;98041.69;5023534;28;20487;-76
2022/08/20 05:20:10;;;;;;;13.27;8.75;;;;;;;21.50;79.49;98026.97;5025198;28;20034;-76
2022/08/20 05:22:39;;;;;;;12.18;9.05;;;;;;;21.54;79.70;98035.38;5022492;28;20095;-76
2022/08/20 05:25:05;;;;;;;14.03;9.40;;;;;;;21.57;79.66;98034.59;5019675;28;20553;-76
2022/08/20 05:27:31;;;;;;;16.75;10.73;;;;;;;21.59;79.84;98023.09;5025531;28;20033;-76
2022/08/20 05:30:14;;;;;;;15.95;11.32;;;;;;;21.62;79.63;98025.94;5024656;28;20041;-76
2022/08/20 05:32:40;;;;;;;17.00;11.80;;;;;;;21.66;79.67;98023.16;5022594;28;20025;-76
2022/08/20 05:35:09;;;;;;;19.85;12.32;;;;;;;21.68;79.86;98035.56;5021879;28;20031;-76
2022/08/20 05:37:40;;;;;;;18.15;12.25;;;;;;;21.72;79.67;98024.44;5024626;28;20025;-76
2022/08/20 05:40:13;;;;;;;19.58;12.77;;;;;;;21.81;79.89;98032.50;5020557;28;20551;-75
2022/08/20 05:42:39;;;;;;;16.15;11.90;;;;;;;21.86;79.93;98037.75;5021685;28;20025;-75
2022/08/20 05:45:06;;;;;;;17.95;12.55;;;;;;;21.91;80.04;98040.19;5020991;28;20045;-76
2022/08/20 05:47:31;;;;;;;16.15;11.93;;;;;;;21.96;79.81;98045.44;5023968;28;20037;-76
2022/08/20 05:49:57;;;;;;;16.55;11.52;;;;;;;22.05;79.92;98044.31;5022007;28;20549;-76
2022/08/20 05:52:22;;;;;;;17.27;12.07;;;;;;;22.12;79.73;98050.00;5023626;28;20041;-76
2022/08/20 05:54:48;;;;;;;16.48;11.65;;;;;;;22.19;79.96;98054.84;5021032;28;20072;-74
2022/08/20 05:57:17;;;;;;;16.67;11.52;;;;;;;22.25;79.98;98047.72;5024425;28;20030;-75
2022/08/20 05:59:43;;;;;;;17.23;10.77;;;;;;;22.27;79.92;98039.75;5021198;28;20049;-74
2022/08/20 06:04:23;;;;;;;15.65;10.38;;;;;;;22.35;79.80;98046.19;5017543;28;20040;-75
2022/08/20 06:04:54;;;;;;;18.33;11.27;;;;;;;22.43;79.81;98048.69;5018262;28;20061;-76
2022/08/20 06:07:19;;;;;;;15.77;10.82;;;;;;;22.50;79.93;98035.97;5024210;28;20864;-76
2022/08/20 06:09:45;;;;;;;14.95;10.40;;;;;;;22.60;80.00;98041.66;5022999;28;20033;-75
2022/08/20 06:12:10;;;;;;;14.77;10.77;;;;;;;22.69;79.92;98041.31;5020766;28;20036;-75
2022/08/20 06:14:36;;;;;;;15.48;10.07;;;;;;;22.78;79.81;98040.19;5021048;28;20723;-75
2022/08/20 06:17:04;;;;;;;15.73;9.65;;;;;;;22.85;79.83;98029.03;5024691;28;20479;-76
2022/08/20 06:19:29;;;;;;;18.20;10.30;;;;;;;22.93;79.64;98036.28;5024796;28;20476;-76
2022/08/20 06:21:55;;;;;;;14.88;9.98;;;;;;;22.99;79.57;98045.13;5018666;28;20030;-76
2022/08/20 06:24:21;;;;;;;13.55;9.73;;;;;;;23.05;79.41;98049.94;5022508;28;20534;-76
2022/08/20 06:26:46;;;;;;;14.88;9.55;;;;;;;23.13;79.37;98061.97;5025860;28;20041;-76
2022/08/20 06:29:12;;;;;;;14.55;9.60;;;;;;;23.16;78.92;98057.59;5024130;28;20021;-76
2022/08/20 06:31:38;;;;;;;14.18;9.23;;;;;;;23.22;79.01;98052.44;5026630;28;20017;-75
2022/08/20 06:34:04;;;;;;;17.30;9.25;;;;;;;23.28;78.79;98050.91;5024200;28;20033;-76
2022/08/20 06:36:29;;;;;;;14.10;8.73;;;;;;;23.32;78.78;98048.91;5027908;28;20494;-76
2022/08/20 06:38:57;;;;;;;16.02;10.10;;;;;;;23.35;78.42;98042.53;5023159;28;20021;-76
2022/08/20 06:41:22;;;;;;;13.93;8.15;;;;;;;23.37;78.16;98042.94;5026616;28;20037;-75
2022/08/20 06:43:48;;;;;;;14.55;7.93;;;;;;;23.39;77.78;98053.75;5025209;28;20029;-76
2022/08/20 06:46:13;;;;;;;13.98;8.07;;;;;;;23.43;78.03;98060.16;5027512;28;20037;-76
2022/08/20 06:48:39;;;;;;;12.98;8.10;;;;;;;23.46;77.86;98062.97;5023641;28;20037;-77
2022/08/20 06:51:05;;;;;;;13.98;8.27;;;;;;;23.48;77.81;98060.56;5029292;28;20112;-76
2022/08/20 06:53:31;;;;;;;11.65;7.93;;;;;;;23.50;77.74;98057.41;5026587;28;20030;-77
2022/08/20 06:55:58;;;;;;;12.35;7.65;;;;;;;23.52;77.60;98062.59;5026454;28;20041;-77
2022/08/20 06:58:24;;;;;;;15.68;7.28;;;;;;;23.52;77.46;98065.38;5025845;28;20041;-77
2022/08/20 07:00:49;;;;;;;12.00;8.05;;;;;;;23.51;77.39;98061.81;5026615;28;20037;-76
2022/08/20 07:03:15;;;;;;;14.52;7.60;;;;;;;23.51;77.18;98074.97;5024180;28;20043;-75
2022/08/20 07:05:42;;;;;;;12.45;7.30;;;;;;;23.48;76.86;98085.75;5023123;28;20108;-75
2022/08/20 07:08:10;;;;;;;13.32;7.13;;;;;;;23.47;76.54;98088.97;5026955;28;20025;-76
2022/08/20 07:10:36;;;;;;;13.27;7.63;;;;;;;23.46;76.80;98090.94;5024697;28;20064;-74
2022/08/20 07:13:02;;;;;;;13.43;7.40;;;;;;;23.47;76.78;98089.75;5024578;28;20057;-76
2022/08/20 07:15:28;;;;;;;12.10;7.53;;;;;;;23.47;76.50;98086.16;5024717;28;20126;-76
2022/08/20 07:17:57;;;;;;;11.93;7.90;;;;;;;23.46;76.48;98078.97;5021291;28;20068;-76
2022/08/20 07:20:23;;;;;;;13.10;7.82;;;;;;;23.46;76.33;98085.34;5026553;28;20029;-76
2022/08/20 07:22:49;;;;;;;14.00;9.13;;;;;;;23.47;76.35;98080.56;5024482;28;20037;-76
2022/08/20 07:25:17;;;;;;;14.02;8.60;;;;;;;23.47;76.60;98081.34;5024649;28;20064;-76
2022/08/20 07:27:44;;;;;;;12.80;7.82;;;;;;;23.48;76.23;98080.16;5026440;28;20530;-76
2022/08/20 07:33:01;;;;;;;11.75;7.57;;;;;;;23.48;76.27;98076.56;5023320;28;20095;-76
2022/08/20 07:35:27;;;;;;;14.35;7.72;;;;;;;23.50;76.06;98077.00;5023981;28;20029;-76
2022/08/20 07:37:55;;;;;;;12.77;8.27;;;;;;;23.54;76.34;98075.00;5022264;28;20483;-76
2022/08/20 07:40:27;;;;;;;14.52;8.07;;;;;;;23.56;76.20;98069.00;5022769;28;20034;-76
2022/08/20 07:42:57;;;;;;;11.98;8.02;;;;;;;23.56;76.25;98078.22;5026087;28;20483;-76
2022/08/20 07:45:23;;;;;;;11.95;7.30;;;;;;;23.59;76.08;98080.22;5024448;28;20053;-77
2022/08/20 07:47:52;;;;;;;15.80;7.65;;;;;;;23.60;76.21;98073.44;5021539;28;20056;-75
2022/08/20 07:50:24;;;;;;;12.23;7.68;;;;;;;23.64;76.13;98070.66;5025727;28;20037;-75
2022/08/20 07:52:51;;;;;;;14.23;8.13;;;;;;;23.69;76.44;98066.66;5022896;28;20452;-74
2022/08/20 07:55:19;;;;;;;14.65;8.30;;;;;;;23.74;76.19;98071.88;5022745;28;20037;-76
2022/08/20 07:57:48;;;;;;;13.80;7.63;;;;;;;23.78;76.15;98067.09;5018381;28;20067;-75
2022/08/20 08:00:16;;;;;;;14.63;7.63;;;;;;;23.81;75.84;98076.72;5021732;28;20033;-75
2022/08/20 08:02:42;;;;;;;11.13;7.47;;;;;;;23.82;75.80;98072.72;5021895;28;20032;-75
2022/08/20 08:05:08;;;;;;;17.02;7.10;;;;;;;23.84;75.70;98076.72;5018351;28;20550;-75
2022/08/20 08:07:34;;;;;;;11.18;7.03;;;;;;;23.88;75.78;98065.50;5023084;28;20475;-75
2022/08/20 08:10:01;;;;;;;14.10;7.40;;;;;;;23.91;75.31;98071.13;5023050;28;20113;-75
2022/08/20 08:12:34;;;;;;;14.75;7.57;;;;;;;23.93;75.04;98067.94;5023655;28;20086;-75
2022/08/20 08:15:02;;;;;;;10.50;6.97;;;;;;;23.98;75.10;98070.38;5022688;28;20038;-75
2022/08/20 08:17:30;;;;;;;16.30;7.20;;;;;;;24.03;74.96;98072.78;5024843;28;20487;-75
2022/08/20 08:19:56;;;;;;;10.15;7.00;;;;;;;24.10;74.77;98065.59;5023667;28;20041;-76
2022/08/20 08:22:22;;;;;;;8.65;6.63;;;;;;;24.16;74.90;98066.81;5022629;28;20045;-75
2022/08/20 08:24:47;;;;;;;13.80;6.60;;;;;;;24.19;74.30;98075.22;5022385;28;20038;-75
2022/08/20 08:27:17;;;;;;;13.80;7.50;;;;;;;24.19;73.77;98068.84;5024420;28;20029;-76
2022/08/20 08:29:42;;;;;;;11.45;6.90;;;;;;;24.19;73.54;98074.44;5024613;28;20112;-76
2022/08/20 08:32:08;;;;;;;11.50;6.53;;;;;;;24.21;73.69;98070.03;5022732;28;20419;-76
2022/08/20 08:34:35;;;;;;;13.77;7.30;;;;;;;24.28;73.73;98069.22;5023089;28;20041;-76
2022/08/20 08:37:01;;;;;;;14.63;8.05;;;;;;;24.37;73.63;98083.66;5021807;28;20040;-75
2022/08/20 08:39:27;;;;;;;11.35;7.35;;;;;;;24.49;73.20;98070.47;5023913;28;20041;-76
2022/08/20 08:41:56;;;;;;;11.73;7.25;;;;;;;24.58;73.63;98075.66;5019150;28;20200;-76
2022/08/20 08:44:28;;;;;;;13.30;7.25;;;;;;;24.68;73.64;98078.44;5018021;28;20053;-76
2022/08/20 08:46:59;;;;;;;12.98;7.15;;;;;;;24.79;73.30;98067.28;5021608;28;20038;-76
2022/08/20 08:49:30;;;;;;;13.23;7.18;;;;;;;24.91;74.01;98063.25;5022992;28;20476;-75
2022/08/20 08:52:06;;;;;;;12.95;7.18;;;;;;;25.04;73.30;98060.03;5019548;28;20033;-75
2022/08/20 08:54:33;;;;;;;13.18;7.18;;;;;;;25.14;73.38;98050.78;5023493;28;20060;-76
2022/08/20 08:56:59;;;;;;;12.82;7.10;;;;;;;25.24;73.37;98054.78;5024027;28;20708;-76
2022/08/20 08:59:29;;;;;;;11.75;6.97;;;;;;;25.35;72.85;98058.34;5022613;28;20045;-76
2022/08/20 09:01:57;;;;;;;10.30;7.10;;;;;;;25.48;72.86;98057.94;5023000;28;20041;-77
2022/08/20 09:04:31;;;;;;;13.50;8.65;;;;;;;25.58;72.54;98056.28;5019864;28;20558;-77
2022/08/20 09:06:58;;;;;;;12.77;7.03;;;;;;;25.65;72.04;98057.06;5020432;28;20037;-81
2022/08/20 09:09:30;;;;;;;16.70;7.65;;;;;;;25.70;71.57;98056.63;5020177;28;20030;-77
2022/08/20 09:12:03;;;;;;;11.23;7.00;;;;;;;25.71;71.09;98055.41;5023744;28;20102;-78
2022/08/20 09:14:28;;;;;;;12.80;7.13;;;;;;;25.76;71.43;98062.63;5020257;28;20033;-77
2022/08/20 09:16:53;;;;;;;12.43;7.32;;;;;;;25.81;71.41;98050.97;5021689;28;20526;-78
2022/08/20 09:19:20;;;;;;;10.80;7.20;;;;;;;25.88;71.29;98057.75;5022585;28;20123;-78
2022/08/20 09:21:45;;;;;;;13.13;7.00;;;;;;;25.92;71.20;98053.72;5022348;28;20065;-75
2022/08/20 09:24:11;;;;;;;10.85;6.70;;;;;;;26.01;70.66;98058.88;5018406;28;20472;-78
2022/08/20 09:26:36;;;;;;;10.38;6.63;;;;;;;26.09;70.49;98057.63;5017726;28;20045;-77
2022/08/20 09:29:02;;;;;;;9.30;6.80;;;;;;;26.18;70.14;98062.81;5021625;28;20033;-78
2022/08/20 09:31:27;;;;;;;12.80;5.82;;;;;;;26.24;69.96;98055.53;5018939;28;20033;-76
2022/08/20 09:33:53;;;;;;;9.98;5.90;;;;;;;26.30;69.29;98058.72;5018921;28;20033;-76
2022/08/20 09:36:19;;;;;;;13.27;6.57;;;;;;;26.35;69.12;98057.50;5020540;28;20107;-75
2022/08/20 09:38:45;;;;;;;8.95;6.38;;;;;;;26.40;69.07;98057.06;5020797;28;20021;-79
2022/08/20 09:41:10;;;;;;;11.48;6.78;;;;;;;26.48;68.40;98057.78;5021659;28;20101;-78
2022/08/20 09:43:36;;;;;;;11.65;6.60;;;;;;;26.53;68.29;98060.94;5021462;28;20041;-76
2022/08/20 09:46:01;;;;;;;10.02;6.10;;;;;;;26.60;68.17;98057.28;5021709;28;20048;-81
2022/08/20 09:48:27;;;;;;;8.90;6.05;;;;;;;26.66;67.89;98052.81;5021254;28;20039;-78
2022/08/20 09:50:52;;;;;;;7.90;6.07;;;;;;;26.71;67.11;98065.63;5019423;28;20039;-79
2022/08/20 09:53:19;;;;;;;9.15;6.10;;;;;;;26.77;66.75;98072.41;5016696;28;20581;-89
2022/08/20 09:55:50;;;;;;;11.68;6.45;;;;;;;26.82;66.82;98069.19;5020826;28;20136;-87
2022/08/20 09:58:21;;;;;;;8.73;5.82;;;;;;;26.90;66.71;98067.09;5022828;28;20033;-87
2022/08/20 10:00:47;;;;;;;9.00;5.78;;;;;;;26.98;66.26;98074.25;5021234;28;20029;-87
2022/08/20 10:03:12;;;;;;;12.13;6.22;;;;;;;27.05;66.13;98067.75;5022595;28;20040;-83
2022/08/20 10:05:38;;;;;;;11.05;6.50;;;;;;;27.12;64.81;98067.69;5019597;28;20408;-79
2022/08/20 10:08:05;;;;;;;11.40;6.38;;;;;;;27.16;64.73;98073.25;5021487;28;20029;-81
2022/08/20 10:10:31;;;;;;;11.27;6.60;;;;;;;27.18;64.16;98073.66;5022026;28;20088;-81
2022/08/20 10:12:56;;;;;;;9.73;6.55;;;;;;;27.21;64.04;98072.81;5019093;28;20038;-81
2022/08/20 10:15:22;;;;;;;11.70;6.30;;;;;;;27.25;64.06;98079.19;5019061;28;20037;-83
2022/08/20 10:17:47;;;;;;;9.30;6.47;;;;;;;27.29;63.98;98073.56;5022532;28;20030;-81
2022/08/20 10:20:14;;;;;;;11.68;6.80;;;;;;;27.33;63.72;98069.47;5018964;28;20022;-81
2022/08/20 10:22:40;;;;;;;11.85;6.95;;;;;;;27.37;63.67;98069.41;5015313;28;20037;-82
2022/08/20 10:25:06;;;;;;;10.98;7.13;;;;;;;27.41;63.65;98069.38;5021517;28;20063;-80
2022/08/20 10:27:32;;;;;;;11.27;6.45;;;;;;;27.41;63.46;98066.56;5020068;28;20432;-77
2022/08/20 10:29:57;;;;;;;13.40;7.35;;;;;;;27.41;63.64;98070.19;5022731;28;20669;-81
2022/08/20 10:32:23;;;;;;;10.88;7.45;;;;;;;27.42;63.20;98066.13;5020662;28;20034;-80
2022/08/20 10:34:50;;;;;;;14.13;7.60;;;;;;;27.43;63.15;98064.13;5020087;28;20049;-80
2022/08/20 10:37:18;;;;;;;14.80;8.00;;;;;;;27.44;62.98;98074.19;5022839;28;20026;-80
2022/08/20 10:39:44;;;;;;;12.98;7.95;;;;;;;27.44;62.78;98072.16;5014412;28;20040;-80
2022/08/20 10:42:10;;;;;;;10.90;6.95;;;;;;;27.42;62.71;98062.53;5018724;28;20033;-79
2022/08/20 10:44:36;;;;;;;11.27;7.38;;;;;;;27.41;62.55;98072.22;5020073;28;20297;-79
2022/08/20 10:47:23;;;;;;;10.90;6.65;;;;;;;27.43;63.05;98081.81;5015797;28;20038;-79
2022/08/20 10:49:51;;;;;;;11.10;6.75;;;;;;;27.46;62.43;98080.19;5020481;28;20586;-79
2022/08/20 10:52:16;;;;;;;13.60;7.03;;;;;;;27.48;62.29;98074.97;5021455;28;20036;-79
2022/08/20 10:54:42;;;;;;;14.68;7.05;;;;;;;27.52;62.32;98072.88;5020073;28;20029;-78
2022/08/20 10:57:14;;;;;;;12.05;6.68;;;;;;;27.56;61.96;98070.84;5021233;28;20494;-77
2022/08/20 10:59:41;;;;;;;10.30;6.47;;;;;;;27.63;62.14;98067.16;5021352;28;20029;-77
2022/08/20 11:02:07;;;;;;;10.82;6.45;;;;;;;27.70;61.89;98066.25;5022793;28;20773;-77
2022/08/20 11:04:33;;;;;;;11.07;6.82;;;;;;;27.77;61.61;98066.94;5021056;28;20053;-77
2022/08/20 11:07:13;;;;;;;12.23;6.03;;;;;;;27.88;62.02;98066.81;5019887;28;20040;-76
2022/08/20 11:09:38;;;;;;;12.48;6.90;;;;;;;27.98;61.21;98059.44;5020842;28;20037;-77
2022/08/20 11:12:04;;;;;;;11.70;6.38;;;;;;;28.01;60.62;98052.94;5023027;28;20026;-76
2022/08/20 11:14:30;;;;;;;12.77;7.57;;;;;;;28.04;59.96;98056.94;5024812;28;20029;-76
2022/08/20 11:16:55;;;;;;;14.20;7.00;;;;;;;28.04;60.13;98052.09;5026741;28;20036;-77
2022/08/20 11:19:21;;;;;;;15.77;6.85;;;;;;;28.07;59.58;98045.63;5024592;28;20028;-82
2022/08/20 11:21:46;;;;;;;14.68;7.43;;;;;;;28.08;59.44;98047.22;5025780;28;20801;-77
2022/08/20 11:24:11;;;;;;;13.20;6.88;;;;;;;28.11;59.57;98050.41;5020647;28;20018;-74
2022/08/20 11:26:37;;;;;;;11.13;6.95;;;;;;;28.15;59.30;98037.06;5025667;28;20112;-74
2022/08/20 11:29:02;;;;;;;9.57;6.65;;;;;;;28.20;59.45;98042.22;5026444;28;20157;-74
2022/08/20 11:31:28;;;;;;;10.93;7.03;;;;;;;28.24;59.07;98040.16;5026132;28;20113;-74
2022/08/20 11:33:53;;;;;;;11.40;6.40;;;;;;;28.26;59.50;98040.53;5024363;28;20111;-74